Latest Weather Observations for Parkes Airport

IDN60801

Issued at 11:33 pm EST Sunday 25 September 2016 (issued every 30 minutes, with the page automatically refreshed every 10 minutes)

About weather observations | Map of weather stations | Latest weather observations for NSW | Other Formats
Station Details ID: 065068 Name: PARKES AIRPORT AWS Lat: -33.13 Lon: 148.24 Height: 323.3 m
Data from the previous 72 hours. | See also: Recent months at Parkes Airport
Date/Time
EST
Temp
°C
App
Temp
°C
Dew
Point
°C
Rel
Hum
%
Delta-T
°C
Wind Press
QNH
hPa
Press
MSL
hPa
Rain since
9am
mm
Dir  Spd
km/h
Gust
km/h
Spd
kts
Gust
kts
25/11:30pm 4.8 3.6 4.4 97 0.2 CALM 0 0 0 0 1015.1 1015.0 1.8
25/11:00pm 4.9 3.6 4.3 96 0.3 CALM 0 0 0 0 1014.9 1014.8 1.8
25/10:30pm 5.4 4.2 4.4 93 0.4 CALM 0 0 0 0 1014.7 1014.6 1.8
25/10:00pm 6.4 4.3 5.8 96 0.3 SSE 6 9 3 5 1014.5 1014.4 1.8
25/09:30pm 6.3 5.3 5.4 94 0.4 CALM 0 0 0 0 1014.3 1014.2 1.8
25/09:00pm 7.9 5.4 6.4 90 0.7 SSW 9 11 5 6 1014.1 1013.9 1.8
25/08:30pm 7.6 6.7 6.1 90 0.7 CALM 0 7 0 4 1013.6 1013.5 1.8
25/08:00pm 8.4 7.8 7.2 92 0.6 CALM 0 0 0 0 1013.3 1013.2 1.8
25/07:30pm 9.3 8.8 7.9 91 0.7 CALM 0 0 0 0 1013.2 1013.1 1.8
25/07:00pm 9.4 8.9 7.7 89 0.8 CALM 0 0 0 0 1012.4 1012.3 1.8
25/06:30pm 10.2 8.0 8.0 86 1.1 SSW 9 11 5 6 1011.9 1011.8 1.8
25/06:00pm 12.4 9.7 8.9 79 1.8 WSW 13 19 7 10 1011.6 1011.5 1.8
25/05:30pm 14.0 10.0 9.0 72 2.6 SW 20 28 11 15 1011.4 1011.2 1.8
25/05:00pm 14.7 10.6 10.1 74 2.4 SW 22 32 12 17 1011.1 1010.9 1.8
25/04:30pm 14.3 11.1 10.1 76 2.2 SW 17 22 9 12 1011.2 1011.0 1.8
25/04:00pm 14.8 11.1 10.0 73 2.5 SW 20 24 11 13 1011.0 1010.8 1.8
25/03:30pm 14.9 9.5 9.5 70 2.8 SW 28 39 15 21 1010.8 1010.6 1.8
25/03:00pm 15.7 9.1 8.7 63 3.6 SW 33 44 18 24 1010.4 1010.3 1.8
25/02:30pm 15.5 9.2 9.6 68 3.1 SW 33 44 18 24 1010.1 1010.0 1.8
25/02:00pm 14.7 9.1 10.1 74 2.4 SW 30 43 16 23 1010.0 1009.9 1.8
25/01:30pm 13.8 9.8 11.7 87 1.1 SW 24 33 13 18 1010.0 1009.9 1.8
25/01:00pm 14.3 11.0 11.6 84 1.5 SW 20 26 11 14 1010.0 1009.9 1.8
25/12:33pm 13.7 10.3 12.4 92 0.7 SW 22 28 12 15 1009.9 1009.8 1.8
25/12:30pm 13.7 10.3 12.4 92 0.7 SW 22 28 12 15 1009.9 1009.8 1.8
25/12:26pm 13.4 9.5 12.1 92 0.7 SW 24 33 13 18 1009.9 1009.8 1.8
25/12:09pm 13.7 10.3 11.4 86 1.2 SW 20 28 11 15 1009.8 1009.7 1.0
25/12:06pm 14.4 11.2 11.4 82 1.6 WSW 19 28 10 15 1009.8 1009.7 0.6
25/12:00pm 15.2 12.4 11.2 77 2.2 WSW 17 26 9 14 1009.7 1009.6 0.4
25/11:53am 14.9 12.0 11.1 78 2.1 WSW 17 22 9 12 1009.8 1009.7 0.4
25/11:37am 15.4 11.6 11.2 76 2.3 WSW 22 30 12 16 1009.8 1009.7 0.4
25/11:30am 15.5 12.3 11.3 76 2.3 WSW 19 28 10 15 1009.8 1009.7 0.4
25/11:00am 14.5 12.3 12.0 85 1.4 WSW 15 22 8 12 1009.8 1009.7 0.4
25/10:30am 13.8 12.5 11.3 85 1.3 WSW 9 15 5 8 1009.8 1009.7 0.4
25/10:04am 13.0 12.0 12.2 95 0.4 SW 9 13 5 7 1009.9 1009.8 0.4
25/10:00am 12.7 11.2 11.8 94 0.5 WSW 11 15 6 8 1009.9 1009.8 0.4
25/09:33am 12.7 10.4 10.6 87 1.1 W 13 19 7 10 1009.9 1009.8 0.0
25/09:30am 13.0 10.5 10.9 87 1.1 W 15 19 8 10 1009.8 1009.7 0.0
25/09:00am 12.7 11.2 10.4 86 1.2 W 9 17 5 9 1009.7 1009.6 5.2
25/08:30am 12.3 12.5 10.7 90 0.8 CALM 0 0 0 0 1009.6 1009.5 5.2
25/08:28am 12.3 12.5 10.7 90 0.8 CALM 0 7 0 4 1009.6 1009.5 5.2
25/08:00am 11.9 12.1 10.6 92 0.7 CALM 0 7 0 4 1009.4 1009.3 5.2
25/07:30am 11.4 11.6 10.5 94 0.5 CALM 0 0 0 0 1009.1 1009.0 5.2
25/07:00am 11.3 11.5 10.7 96 0.3 CALM 0 0 0 0 1009.0 1008.9 5.2
25/06:30am 11.0 11.2 10.5 97 0.3 CALM 0 0 0 0 1008.8 1008.6 5.2
25/06:27am 11.0 11.2 10.5 97 0.3 CALM 0 0 0 0 1008.8 1008.6 5.2
25/06:00am 11.0 10.8 10.4 96 0.3 NW 2 7 1 4 1008.8 1008.6 4.8
25/05:38am 11.1 10.2 10.5 96 0.3 WNW 6 11 3 6 1008.7 1008.5 4.0
25/05:30am 11.1 10.2 10.5 96 0.3 WNW 6 9 3 5 1008.7 1008.5 3.8
25/05:00am 11.3 9.5 10.7 96 0.3 WNW 11 15 6 8 1008.4 1008.2 3.2
25/04:45am 11.4 8.8 10.6 95 0.4 WNW 15 24 8 13 1008.3 1008.1 3.0
25/04:30am 11.5 8.9 10.7 95 0.4 NW 15 20 8 11 1008.2 1008.0 2.6
25/04:23am 11.6 9.0 10.8 95 0.4 NW 15 20 8 11 1008.2 1008.0 2.4
25/04:00am 11.8 10.1 11.2 96 0.3 NW 11 17 6 9 1008.1 1007.9 2.4
25/03:30am 11.8 9.7 11.0 95 0.4 NNW 13 17 7 9 1008.1 1007.9 2.0
25/03:00am 11.7 10.3 10.8 94 0.5 N 9 11 5 6 1008.2 1008.0 1.2
25/02:30am 11.8 10.3 10.5 92 0.7 NNE 9 13 5 7 1008.1 1007.9 0.8
25/02:00am 12.1 9.8 10.5 90 0.8 NNE 13 17 7 9 1008.2 1008.0 0.6
25/01:30am 11.9 10.1 10.8 93 0.6 NE 11 13 6 7 1008.6 1008.4 0.6
25/01:00am 11.9 12.3 11.1 95 0.4 CALM 0 0 0 0 1009.0 1008.9 0.6
25/12:30am 12.0 12.2 10.7 92 0.7 CALM 0 0 0 0 1009.1 1009.0 0.6
25/12:00am 12.3 12.7 11.2 93 0.6 CALM 0 0 0 0 1009.2 1009.1 0.6
 
Date/Time
EST
Temp
°C
App
Temp
°C
Dew
Point
°C
Rel
Hum
%
Delta-T
°C
Wind Press
QNH
hPa
Press
MSL
hPa
Rain since
9am
mm
Dir  Spd
km/h
Gust
km/h
Spd
kts
Gust
kts
24/11:30pm 12.1 10.6 10.7 91 0.7 NE 9 11 5 6 1009.5 1009.4 0.6
24/11:00pm 12.5 11.5 10.9 90 0.9 ENE 7 9 4 5 1009.6 1009.5 0.6
24/10:30pm 12.5 11.4 10.7 89 1.0 ENE 7 11 4 6 1009.7 1009.6 0.4
24/10:00pm 12.5 12.8 10.9 90 0.9 CALM 0 0 0 0 1009.7 1009.6 0.4
24/09:30pm 12.5 11.0 10.6 88 1.0 NE 9 9 5 5 1009.6 1009.5 0.0
24/09:00pm 12.4 12.5 10.3 87 1.1 CALM 0 9 0 5 1009.7 1009.6 0.0
24/08:30pm 12.4 12.5 10.1 86 1.2 CALM 0 0 0 0 1009.9 1009.8 0.0
24/08:00pm 11.8 10.5 9.9 88 1.0 NE 7 9 4 5 1009.6 1009.5 0.0
24/07:30pm 11.9 10.2 9.8 87 1.1 NNE 9 11 5 6 1009.5 1009.4 0.0
24/07:00pm 12.6 11.0 10.3 86 1.2 NE 9 11 5 6 1009.5 1009.4 0.0
24/06:30pm 13.6 12.6 10.4 81 1.7 N 6 7 3 4 1009.6 1009.5 0.0
24/06:00pm 14.0 12.5 10.6 80 1.8 NNW 9 11 5 6 1009.9 1009.8 0.0
24/05:30pm 15.6 13.9 11.2 75 2.4 NNW 11 15 6 8 1009.7 1009.6 0.0
24/05:00pm 16.1 14.3 10.8 71 2.9 NNW 11 13 6 7 1009.6 1009.5 0.0
24/04:30pm 17.2 14.8 9.9 62 3.9 NNW 13 19 7 10 1009.2 1009.1 0.0
24/04:00pm 18.4 15.0 9.2 55 4.9 N 17 24 9 13 1009.3 1009.2 0.0
24/03:30pm 19.0 14.7 9.2 53 5.2 NW 22 30 12 16 1009.2 1009.1 0.0
24/03:00pm 19.3 15.5 9.8 54 5.1 NW 20 28 11 15 1009.2 1009.1 0.0
24/02:30pm 19.6 16.1 10.3 55 5.1 NW 19 26 10 14 1009.1 1009.0 0.0
24/02:00pm 19.2 15.7 10.2 56 4.9 NNW 19 28 10 15 1009.4 1009.3 0.0
24/01:30pm 18.9 15.3 10.7 59 4.5 NW 20 33 11 18 1010.1 1010.0 0.0
24/01:00pm 18.9 15.2 11.5 62 4.1 NW 22 32 12 17 1010.5 1010.4 0.0
24/12:30pm 18.8 15.6 11.4 62 4.1 NW 19 26 10 14 1010.8 1010.6 0.0
24/12:00pm 19.0 16.5 12.3 65 3.8 NNW 17 28 9 15 1010.9 1010.7 0.0
24/11:30am 18.5 16.8 11.3 63 4.0 NNE 11 19 6 10 1011.1 1010.9 0.0
24/11:00am 18.3 16.6 11.1 63 4.0 NNW 11 17 6 9 1011.5 1011.3 0.0
24/10:30am 17.8 16.5 11.4 66 3.5 N 9 17 5 9 1012.1 1012.0 0.0
24/10:00am 17.0 16.3 11.3 69 3.1 N 6 13 3 7 1012.5 1012.4 0.0
24/09:30am 16.0 14.6 11.0 72 2.7 N 9 15 5 8 1012.8 1012.7 0.0
24/09:00am 14.6 13.3 11.4 81 1.7 NNE 9 13 5 7 1013.1 1013.0 0.0
24/08:30am 13.1 11.9 11.5 90 0.9 NNE 9 11 5 6 1013.4 1013.3 0.0
24/08:00am 10.9 9.7 10.3 96 0.3 NE 7 9 4 5 1013.6 1013.5 0.0
24/07:30am 9.6 8.2 9.5 99 0.1 NE 7 9 4 5 1013.9 1013.8 0.0
24/07:00am 8.4 6.7 8.3 99 0.0 NE 7 9 4 5 1013.7 1013.6 0.0
24/06:30am 7.0 4.6 6.9 99 0.0 NE 9 11 5 6 1013.3 1013.2 0.0
24/06:00am 5.4 2.2 5.3 99 0.0 NNE 11 13 6 7 1012.8 1012.7 0.0
24/05:30am 4.4 1.4 4.1 98 0.1 N 9 11 5 6 1012.5 1012.4 0.0
24/05:00am 5.4 4.3 5.3 99 0.0 CALM 0 7 0 4 1012.1 1012.0 0.0
24/04:30am 4.7 3.5 4.4 98 0.1 CALM 0 0 0 0 1012.0 1011.9 0.0
24/04:00am 5.3 4.2 5.0 98 0.1 CALM 0 0 0 0 1011.8 1011.7 0.0
24/03:30am 5.3 2.8 5.0 98 0.1 N 7 9 4 5 1011.8 1011.7 0.0
24/03:00am 5.8 3.1 5.7 99 0.0 ENE 9 11 5 6 1012.0 1011.9 0.0
24/02:30am 5.6 3.2 5.3 98 0.1 NNE 7 9 4 5 1012.1 1012.0 0.0
24/02:00am 5.9 2.8 5.6 98 0.1 ENE 11 13 6 7 1012.3 1012.2 0.0
24/01:30am 6.1 3.8 5.8 98 0.1 NE 7 9 4 5 1012.7 1012.6 0.0
24/01:00am 6.9 4.5 6.8 99 0.0 ENE 9 11 5 6 1012.8 1012.7 0.0
24/12:30am 7.1 5.6 7.0 99 0.0 NE 4 7 2 4 1013.0 1012.9 0.0
24/12:00am 7.1 5.2 6.8 98 0.1 NE 6 7 3 4 1012.9 1012.8 0.0
 
Date/Time
EST
Temp
°C
App
Temp
°C
Dew
Point
°C
Rel
Hum
%
Delta-T
°C
Wind Press
QNH
hPa
Press
MSL
hPa
Rain since
9am
mm
Dir  Spd
km/h
Gust
km/h
Spd
kts
Gust
kts
23/11:30pm 7.1 4.7 7.0 99 0.0 NE 9 11 5 6 1013.0 1012.9 0.0
23/11:00pm 7.0 4.1 6.4 96 0.3 ENE 11 13 6 7 1013.0 1012.9 0.0
23/10:30pm 7.9 5.6 7.6 98 0.1 NE 9 11 5 6 1013.2 1013.1 0.0
23/10:00pm 7.7 5.3 7.1 96 0.3 ENE 9 11 5 6 1013.3 1013.2 0.0
23/09:30pm 7.9 6.8 7.1 95 0.4 ENE 2 11 1 6 1013.5 1013.4 0.0
23/09:00pm 8.6 8.1 7.8 95 0.4 CALM 0 0 0 0 1013.7 1013.6 0.0
23/08:30pm 8.6 8.1 7.7 94 0.4 CALM 0 0 0 0 1013.6 1013.5 0.0
23/08:00pm 9.5 9.1 8.4 93 0.5 CALM 0 0 0 0 1013.7 1013.6 0.0
23/07:30pm 9.9 9.5 8.2 89 0.8 CALM 0 0 0 0 1013.6 1013.5 0.0
23/07:00pm 11.4 9.9 9.1 86 1.2 SSW 7 9 4 5 1013.4 1013.3 0.0
23/06:30pm 12.1 10.4 9.7 85 1.2 SSW 9 9 5 5 1013.1 1013.0 0.0
23/06:00pm 13.9 12.3 10.1 78 2.0 SW 9 11 5 6 1013.0 1012.9 0.0
23/05:30pm 15.6 13.3 10.4 71 2.8 SW 13 17 7 9 1012.9 1012.8 0.0
23/05:00pm 16.6 14.3 10.5 67 3.3 SW 13 19 7 10 1012.7 1012.6 0.0
23/04:30pm 17.0 14.4 10.8 67 3.4 SW 15 19 8 10 1012.7 1012.6 0.0
23/04:00pm 17.1 14.1 10.7 66 3.5 SW 17 20 9 11 1012.6 1012.5 0.0
23/03:30pm 17.2 14.6 10.6 65 3.6 SW 15 22 8 12 1012.5 1012.4 0.0
23/03:00pm 17.0 14.9 11.1 68 3.2 SW 13 19 7 10 1012.5 1012.4 0.0
23/02:30pm 17.0 15.0 11.5 70 3.0 SW 13 17 7 9 1012.7 1012.6 0.0
23/02:00pm 16.5 14.0 11.2 71 2.9 SW 15 22 8 12 1013.1 1013.0 0.0
23/01:30pm 15.7 12.9 10.0 69 3.0 SW 15 22 8 12 1013.5 1013.4 0.0
23/01:00pm 15.6 12.5 10.4 71 2.8 SW 17 22 9 12 1013.9 1013.8 0.0
23/12:30pm 15.1 12.9 10.7 75 2.4 SW 13 20 7 11 1014.2 1014.0 0.0
23/12:00pm 14.4 11.2 10.0 75 2.3 SW 17 24 9 13 1014.8 1014.7 0.0
23/11:30am 14.8 13.0 10.8 77 2.1 SW 11 19 6 10 1015.0 1014.9 0.0
23/11:26am 14.2 12.2 10.2 77 2.1 SW 11 20 6 11 1015.1 1015.0 0.0
23/11:00am 13.8 11.3 9.8 77 2.1 WSW 13 17 7 9 1015.3 1015.2 0.0
23/10:49am 13.5 10.6 9.7 78 2.0 WSW 15 20 8 11 1015.4 1015.3 0.0
23/10:45am 13.1 10.5 9.2 77 2.0 WSW 13 20 7 11 1015.4 1015.3 0.0
23/10:32am 13.2 11.1 9.6 79 1.9 WSW 11 13 6 7 1015.4 1015.3 0.0
23/10:30am 13.0 11.2 9.4 79 1.9 WSW 9 13 5 7 1015.4 1015.3 0.0
23/10:00am 12.3 9.6 9.1 81 1.6 W 13 19 7 10 1015.7 1015.6 0.0
23/09:30am 11.3 8.1 8.5 83 1.4 WSW 15 20 8 11 1015.9 1015.8 0.0
23/09:00am 11.0 8.6 8.6 85 1.2 SW 11 15 6 8 1015.9 1015.8 0.0
23/08:30am 10.7 9.2 8.5 86 1.1 S 6 11 3 6 1015.9 1015.8 0.0
23/08:00am 9.8 8.6 8.1 89 0.8 S 4 7 2 4 1015.8 1015.7 0.0
23/07:30am 9.3 7.4 7.4 88 0.9 SE 7 11 4 6 1015.6 1015.5 0.0
23/07:00am 9.0 7.4 7.8 92 0.6 S 6 9 3 5 1015.6 1015.5 0.0
23/06:30am 8.7 6.4 7.6 93 0.5 S 9 13 5 7 1015.3 1015.2 0.0
23/06:00am 8.8 6.9 7.7 93 0.5 SSW 7 11 4 6 1015.2 1015.1 0.0
23/05:30am 8.7 7.1 7.8 94 0.4 S 6 9 3 5 1014.9 1014.8 0.0
23/05:00am 8.6 6.0 7.7 94 0.4 SW 11 13 6 7 1014.8 1014.7 0.0
23/04:30am 8.8 6.6 7.7 93 0.5 SW 9 11 5 6 1014.7 1014.6 0.0
23/04:00am 8.7 6.9 7.8 94 0.4 S 7 9 4 5 1014.5 1014.4 0.0
23/03:30am 8.4 6.5 7.6 95 0.4 S 7 7 4 4 1014.3 1014.2 0.0
23/03:00am 8.3 6.0 7.5 95 0.4 SSW 9 9 5 5 1014.2 1014.0 0.0
23/02:32am 7.2 6.4 6.5 95 0.3 CALM 0 0 0 0 1014.4 1014.3 0.0
23/02:30am 7.2 6.4 6.5 95 0.3 CALM 0 0 0 0 1014.4 1014.3 0.0
23/02:00am 7.7 5.6 6.5 92 0.6 SSW 7 9 4 5 1014.4 1014.3 0.0
23/01:30am 9.2 7.0 7.8 91 0.7 WSW 9 13 5 7 1014.6 1014.5 0.0
23/01:00am 9.8 7.7 8.1 89 0.8 SSW 9 11 5 6 1015.0 1014.9 0.0
23/12:30am 9.8 9.0 8.1 89 0.8 SSW 2 9 1 5 1015.3 1015.2 0.0
23/12:00am 10.3 8.2 8.4 88 0.9 SW 9 11 5 6 1015.5 1015.4 0.0

Other Formats:

Comma delimited format used in spreadsheet applications
http://www.bom.gov.au/fwo/IDN60801/IDN60801.95717.axf

JavaScript Object Notation format (JSON) in row-major order
http://www.bom.gov.au/fwo/IDN60801/IDN60801.95717.json